Terminal Aerodrome Forecast
Issued by NWS Mt. Holly, NJ

Home | Current Version | Previous Version | Text Only | Print | Product List | Glossary On
Versions: 1 2 3 4 5 6 7 8 9 10 11 12 13 14 15 16 17 18 19 20 21 22 23 24 25 26 27 28 29 30 31 32 33 34 35 36 37 38 39 40 41 42 43 44 45 46 47 48 49 50
000
FTAK31 PANC 161721
TAFABE
TAF
PABE 161721Z 1618/1718 14014KT P6SM VCSH SCT025 BKN040
      TEMPO 1618/1622 3SM -SHSN BKN025
     FM170000 10011KT P6SM FEW040 BKN060
     FM170600 04007KT P6SM BKN060
     FM171200 34006KT 3SM BR OVC012=

USA.gov is the U.S. government's official web portal to all federal, state and local government web resources and services.